Time;durP1;ratioP1;P1;durP2;ratioP2;P2;SDS_P1;SDS_P2;PMS_P1;PMS_P2;Temp;Humidity;BMP_temperature;BMP_pressure;BME280_temperature;BME280_humidity;BME280_pressure;Samples;Min_cycle;Max_cycle;Signal;HPM_P1;HPM_P2
2022/01/30 00:00:03;;;;;;;0.40;0.40;;;8.20;59.20;;;;;;20538;6911;117487;-81
2022/01/30 00:02:29;;;;;;;0.50;0.50;;;8.10;59.10;;;;;;20347;6911;280361;-82
2022/01/30 00:04:55;;;;;;;0.40;0.40;;;8.10;59.40;;;;;;20540;6911;119135;-80
2022/01/30 00:07:20;;;;;;;0.40;0.40;;;8.10;59.00;;;;;;20326;6911;343342;-80
2022/01/30 00:09:48;;;;;;;0.40;0.40;;;8.20;59.10;;;;;;20526;6911;118655;-82
2022/01/30 00:12:16;;;;;;;0.30;0.30;;;8.10;58.50;;;;;;20320;6911;279405;-81
2022/01/30 00:14:38;;;;;;;0.20;0.20;;;8.20;58.50;;;;;;20520;6911;120456;-81
2022/01/30 00:17:11;;;;;;;0.28;0.28;;;8.10;58.00;;;;;;20518;6911;120615;-81
2022/01/30 00:19:41;;;;;;;0.30;0.30;;;7.90;58.30;;;;;;20293;6911;295502;-80
2022/01/30 00:22:15;;;;;;;0.47;0.47;;;8.00;59.00;;;;;;20499;6911;118275;-81
2022/01/30 00:24:44;;;;;;;0.30;0.30;;;7.90;58.50;;;;;;20490;6911;117557;-80
2022/01/30 00:26:57;;;;;;;0.40;0.40;;;7.80;58.70;;;;;;20450;6911;119414;-80
2022/01/30 00:29:21;;;;;;;0.50;0.50;;;7.70;59.00;;;;;;20312;6911;313370;-81
2022/01/30 00:31:47;;;;;;;0.30;0.30;;;7.80;59.30;;;;;;20527;6911;117458;-80
2022/01/30 00:34:13;;;;;;;0.43;0.43;;;7.70;58.70;;;;;;20525;6911;118374;-80
2022/01/30 00:36:39;;;;;;;0.40;0.40;;;7.80;58.70;;;;;;20318;6911;311128;-80
2022/01/30 00:39:04;;;;;;;0.37;0.37;;;7.90;59.00;;;;;;20302;6911;309710;-82
2022/01/30 00:41:30;;;;;;;0.95;0.55;;;8.30;58.40;;;;;;20535;6911;117852;-80
2022/01/30 00:43:55;;;;;;;0.32;0.32;;;8.30;57.70;;;;;;20537;6911;117449;-80
2022/01/30 00:46:21;;;;;;;0.40;0.40;;;8.10;57.70;;;;;;20324;6911;339024;-82
2022/01/30 00:48:46;;;;;;;0.50;0.50;;;8.20;58.20;;;;;;20305;6911;309376;-81
2022/01/30 00:51:12;;;;;;;0.67;0.67;;;8.50;57.70;;;;;;20526;6911;117621;-81
2022/01/30 00:53:37;;;;;;;0.60;0.60;;;8.40;57.10;;;;;;20306;6911;311711;-82
2022/01/30 00:56:03;;;;;;;0.60;0.60;;;8.50;57.40;;;;;;20322;6911;287610;-82
2022/01/30 00:58:29;;;;;;;0.65;0.65;;;8.70;57.00;;;;;;20321;6911;280586;-80
2022/01/30 01:00:54;;;;;;;0.57;0.43;;;8.90;56.40;;;;;;20505;6911;118679;-82
2022/01/30 01:03:20;;;;;;;0.50;0.50;;;8.80;56.10;;;;;;20531;6911;117602;-80
2022/01/30 01:05:45;;;;;;;0.73;0.73;;;8.50;56.50;;;;;;20532;6909;120692;-83
2022/01/30 01:08:17;;;;;;;0.70;0.70;;;8.30;57.00;;;;;;20531;6911;117554;-82
2022/01/30 01:10:49;;;;;;;0.80;0.80;;;8.00;57.20;;;;;;20307;6911;311433;-80
2022/01/30 01:13:49;;;;;;;1.10;0.90;;;8.20;58.00;;;;;;20465;6911;120878;-82
2022/01/30 01:23:54;;;;;;;0.70;0.70;;;8.20;57.50;;;;;;20535;6911;117370;-81
2022/01/30 01:26:19;;;;;;;0.90;0.90;;;8.00;57.40;;;;;;20485;6911;117531;-81
2022/01/30 01:28:44;;;;;;;0.70;0.70;;;7.80;57.60;;;;;;20503;6911;117878;-80
2022/01/30 01:31:12;;;;;;;0.90;0.90;;;7.90;59.00;;;;;;20332;6911;344137;-83
2022/01/30 01:36:13;;;;;;;0.83;0.83;;;8.20;58.60;;;;;;20329;6911;284512;-82
2022/01/30 01:38:39;;;;;;;1.10;1.10;;;8.50;57.30;;;;;;20536;6911;121329;-81
2022/01/30 01:41:05;;;;;;;0.90;0.90;;;8.50;57.30;;;;;;20509;6911;118065;-81
2022/01/30 01:43:31;;;;;;;0.73;0.73;;;8.30;57.50;;;;;;20531;6911;117560;-82
2022/01/30 01:45:57;;;;;;;0.90;0.90;;;8.10;57.90;;;;;;20530;6911;118130;-81
2022/01/30 01:48:21;;;;;;;0.90;0.90;;;7.90;58.10;;;;;;20526;6911;117684;-82
2022/01/30 01:50:53;;;;;;;1.00;1.00;;;7.80;58.20;;;;;;20285;6911;310343;-81
2022/01/30 01:53:12;;;;;;;0.80;0.80;;;8.00;58.80;;;;;;20511;6911;117759;-81
2022/01/30 01:55:38;;;;;;;0.80;0.80;;;8.00;58.10;;;;;;20530;6911;119652;-81
2022/01/30 01:58:03;;;;;;;1.00;1.00;;;7.90;58.10;;;;;;20331;6911;290191;-81
2022/01/30 02:00:29;;;;;;;0.90;0.90;;;8.10;58.70;;;;;;20318;6911;284889;-83
2022/01/30 02:02:55;;;;;;;1.00;1.00;;;8.40;58.30;;;;;;20505;6911;120508;-80
2022/01/30 02:05:23;;;;;;;1.03;1.03;;;8.40;57.60;;;;;;20316;6911;299141;-82
2022/01/30 02:08:12;;;;;;;1.40;1.20;;;8.50;58.50;;;;;;20304;6911;345369;-83
2022/01/30 02:10:18;;;;;;;1.47;1.37;;;8.70;58.30;;;;;;20256;6911;283804;-81
2022/01/30 02:12:47;;;;;;;1.23;1.20;;;8.90;58.10;;;;;;20302;6911;281113;-80
2022/01/30 02:25:43;;;;;;;1.40;1.30;;;9.10;58.00;;;;;;20313;6911;309797;-80
2022/01/30 02:28:11;;;;;;;1.03;1.03;;;9.00;57.90;;;;;;20522;6911;120253;-80
2022/01/30 02:30:35;;;;;;;1.20;1.20;;;8.80;57.70;;;;;;20307;6911;285079;-80
2022/01/30 02:32:58;;;;;;;1.23;1.23;;;8.70;58.60;;;;;;20486;6911;118483;-80
2022/01/30 02:35:24;;;;;;;0.95;0.95;;;8.50;58.40;;;;;;20519;6911;118707;-80
2022/01/30 02:37:53;;;;;;;1.50;1.40;;;8.20;58.80;;;;;;20309;6911;341091;-81
2022/01/30 02:40:15;;;;;;;0.87;0.87;;;8.30;59.90;;;;;;20508;6911;117901;-80
2022/01/30 02:42:47;;;;;;;1.35;1.30;;;8.20;59.50;;;;;;20311;6911;342708;-82
2022/01/30 02:45:10;;;;;;;1.40;1.40;;;8.50;60.00;;;;;;20281;6911;310251;-81
2022/01/30 02:52:35;;;;;;;1.30;1.30;;;8.10;59.70;;;;;;20319;6911;314811;-80
2022/01/30 02:55:00;;;;;;;1.60;1.50;;;8.00;60.20;;;;;;20486;6911;121032;-79
2022/01/30 02:57:26;;;;;;;1.50;1.50;;;8.00;60.20;;;;;;20307;6911;315142;-82
2022/01/30 02:59:53;;;;;;;1.70;1.60;;;8.10;61.20;;;;;;20310;6911;313476;-80
2022/01/30 03:02:19;;;;;;;1.27;1.27;;;8.20;60.40;;;;;;20515;6911;118712;-80
2022/01/30 03:04:44;;;;;;;1.13;1.13;;;8.20;60.30;;;;;;20503;6911;117924;-82
2022/01/30 03:07:10;;;;;;;1.80;1.70;;;8.00;60.60;;;;;;20318;6911;283031;-80
2022/01/30 03:09:35;;;;;;;1.27;1.27;;;8.00;61.60;;;;;;20530;6911;118044;-81
2022/01/30 03:12:01;;;;;;;1.90;1.80;;;8.00;61.10;;;;;;20318;6911;309834;-83
2022/01/30 03:14:27;;;;;;;1.63;1.63;;;8.00;61.50;;;;;;20524;6911;117676;-80
2022/01/30 03:16:53;;;;;;;1.80;1.50;;;8.00;61.00;;;;;;20498;6911;119805;-81
2022/01/30 03:19:18;;;;;;;1.58;1.48;;;7.80;61.30;;;;;;20500;6911;121792;-83
2022/01/30 03:21:43;;;;;;;2.05;1.95;;;7.60;61.70;;;;;;20302;6911;310368;-82
2022/01/30 03:24:10;;;;;;;1.80;1.60;;;7.80;62.10;;;;;;20513;6911;118628;-82
2022/01/30 03:26:38;;;;;;;2.10;2.00;;;7.70;62.00;;;;;;20295;6911;314412;-80
2022/01/30 03:29:05;;;;;;;2.00;2.00;;;7.90;62.60;;;;;;20284;6910;315822;-80
2022/01/30 03:31:26;;;;;;;1.83;1.73;;;8.20;62.10;;;;;;20492;6911;118823;-82
2022/01/30 03:33:52;;;;;;;2.30;2.20;;;8.10;61.50;;;;;;20285;6911;312286;-82
2022/01/30 03:36:17;;;;;;;2.20;2.10;;;8.20;61.90;;;;;;20301;6911;309847;-80
2022/01/30 03:38:43;;;;;;;2.28;2.17;;;8.50;61.50;;;;;;20307;6911;283659;-82
2022/01/30 03:41:09;;;;;;;1.60;1.50;;;8.60;60.80;;;;;;20525;6911;117699;-80
2022/01/30 03:43:35;;;;;;;2.30;1.80;;;8.50;60.90;;;;;;20313;6911;333836;-80
2022/01/30 03:46:02;;;;;;;1.73;1.70;;;8.50;60.90;;;;;;20520;6911;119138;-82
2022/01/30 03:48:27;;;;;;;2.37;2.27;;;8.40;60.80;;;;;;20310;6911;310038;-80
2022/01/30 03:50:53;;;;;;;2.58;2.47;;;8.40;61.50;;;;;;20290;6911;315144;-82
2022/01/30 03:53:18;;;;;;;1.77;1.67;;;8.60;61.20;;;;;;20514;6911;117655;-82
2022/01/30 03:55:44;;;;;;;1.80;1.70;;;8.50;60.60;;;;;;20521;6911;117443;-80
2022/01/30 03:58:09;;;;;;;2.50;2.37;;;8.20;60.90;;;;;;20316;6911;281050;-80
2022/01/30 04:00:35;;;;;;;2.47;2.37;;;8.20;61.90;;;;;;20311;6911;283885;-81
2022/01/30 04:03:01;;;;;;;2.50;2.30;;;8.40;61.70;;;;;;20300;6911;281390;-80
2022/01/30 04:05:28;;;;;;;2.53;2.30;;;8.80;60.80;;;;;;20316;6911;309765;-79
2022/01/30 04:07:55;;;;;;;3.10;2.13;;;8.80;60.60;;;;;;20526;6911;117447;-80
2022/01/30 04:10:21;;;;;;;1.63;1.53;;;8.60;60.30;;;;;;20517;6911;119802;-80
2022/01/30 04:12:48;;;;;;;1.87;1.77;;;8.20;60.80;;;;;;20504;6911;120418;-80
2022/01/30 04:15:14;;;;;;;1.77;1.67;;;8.00;61.50;;;;;;20523;6911;117759;-80
2022/01/30 04:17:39;;;;;;;1.70;1.60;;;7.70;61.90;;;;;;20523;6911;118461;-80
2022/01/30 04:20:05;;;;;;;1.77;1.67;;;7.60;62.50;;;;;;20515;6911;117873;-82
2022/01/30 04:22:31;;;;;;;1.43;1.43;;;7.40;62.60;;;;;;20517;6911;117790;-82
2022/01/30 04:24:56;;;;;;;1.55;1.40;;;7.30;63.00;;;;;;20500;6911;118093;-81
2022/01/30 04:27:22;;;;;;;2.20;2.00;;;7.20;63.10;;;;;;20319;6911;310681;-81
2022/01/30 04:29:48;;;;;;;1.87;1.80;;;7.40;64.20;;;;;;20314;6911;311825;-82
2022/01/30 04:32:13;;;;;;;1.92;1.80;;;7.80;63.90;;;;;;20305;6911;280322;-80
2022/01/30 04:34:41;;;;;;;2.07;1.87;;;8.10;63.00;;;;;;20304;6911;312421;-80
2022/01/30 04:37:12;;;;;;;1.83;1.70;;;8.40;62.40;;;;;;20491;6911;117522;-81
2022/01/30 04:39:52;;;;;;;2.10;1.90;;;8.30;62.00;;;;;;20293;6910;281027;-82
2022/01/30 04:53:06;;;;;;;1.63;1.63;;;8.30;61.20;;;;;;20500;6911;121344;-82
2022/01/30 04:58:12;;;;;;;2.00;1.90;;;8.30;61.90;;;;;;20325;6911;291239;-80
2022/01/30 05:00:36;;;;;;;1.37;1.23;;;8.50;61.60;;;;;;20492;6911;121240;-80
2022/01/30 05:07:46;;;;;;;1.45;1.35;;;7.80;63.00;;;;;;20314;6911;313001;-81
2022/01/30 05:10:11;;;;;;;1.30;1.30;;;8.10;62.80;;;;;;20311;6911;283195;-81
2022/01/30 05:12:45;;;;;;;1.30;1.20;;;8.10;62.60;;;;;;20313;6911;340115;-82
2022/01/30 05:15:04;;;;;;;1.13;1.13;;;8.40;61.80;;;;;;20283;6911;281582;-80
2022/01/30 05:17:30;;;;;;;2.17;1.27;;;8.60;61.20;;;;;;20533;6911;117555;-81
2022/01/30 05:19:55;;;;;;;1.00;1.00;;;8.40;60.90;;;;;;20533;6911;118880;-81
2022/01/30 05:22:21;;;;;;;1.00;1.00;;;8.10;61.40;;;;;;20532;6911;117788;-81
2022/01/30 05:24:46;;;;;;;0.90;0.90;;;7.90;62.10;;;;;;20521;6911;117551;-81
2022/01/30 05:27:12;;;;;;;1.10;1.10;;;7.70;62.50;;;;;;20345;6911;280521;-80
2022/01/30 05:29:39;;;;;;;1.55;1.30;;;7.80;63.10;;;;;;20361;6911;339502;-81
2022/01/30 05:32:05;;;;;;;0.97;0.97;;;8.00;62.50;;;;;;20571;6911;118011;-79
2022/01/30 05:34:30;;;;;;;2.33;0.80;;;8.00;61.90;;;;;;20564;6911;116756;-82
2022/01/30 05:36:56;;;;;;;0.97;0.50;;;7.80;62.10;;;;;;20544;6911;121024;-80
2022/01/30 05:39:21;;;;;;;0.80;0.80;;;7.60;62.60;;;;;;20526;6911;119416;-83
2022/01/30 05:41:47;;;;;;;0.73;0.73;;;7.40;62.90;;;;;;20322;6911;339896;-82
2022/01/30 05:44:18;;;;;;;0.60;0.60;;;7.60;63.70;;;;;;20536;6911;120023;-80
2022/01/30 05:46:49;;;;;;;0.83;0.83;;;7.60;63.00;;;;;;20309;6911;280797;-80
2022/01/30 05:49:11;;;;;;;0.80;0.80;;;7.80;62.80;;;;;;20500;6911;118379;-80
2022/01/30 05:51:38;;;;;;;0.50;0.50;;;7.60;63.20;;;;;;20533;6909;68427;-80
2022/01/30 05:54:04;;;;;;;0.90;0.90;;;7.60;63.00;;;;;;20327;6911;338651;-80
2022/01/30 05:56:29;;;;;;;0.70;0.70;;;7.70;63.30;;;;;;20325;6911;280564;-80
2022/01/30 05:58:55;;;;;;;1.08;0.73;;;8.00;62.60;;;;;;20502;6911;118506;-82
2022/01/30 06:01:20;;;;;;;1.55;0.95;;;8.00;62.00;;;;;;20534;6911;117623;-82
2022/01/30 06:03:46;;;;;;;0.70;0.70;;;7.80;62.90;;;;;;20320;6911;344050;-83
2022/01/30 06:06:13;;;;;;;0.80;0.80;;;7.80;62.80;;;;;;20340;6911;342370;-83
2022/01/30 06:08:56;;;;;;;0.70;0.70;;;8.10;62.20;;;;;;20555;6911;116591;-82
2022/01/30 06:11:09;;;;;;;0.90;0.90;;;8.10;61.80;;;;;;20300;6911;280973;-82
2022/01/30 06:13:36;;;;;;;0.83;0.83;;;8.10;61.70;;;;;;20567;6911;117571;-82
2022/01/30 06:16:01;;;;;;;1.00;0.83;;;8.00;61.30;;;;;;20564;6911;116669;-83
2022/01/30 06:18:27;;;;;;;0.80;0.80;;;7.80;61.60;;;;;;20564;6911;116941;-81
2022/01/30 06:20:55;;;;;;;1.53;0.90;;;7.50;62.20;;;;;;20511;6911;118096;-82
2022/01/30 06:23:27;;;;;;;0.80;0.80;;;7.40;62.70;;;;;;20543;6911;118022;-81
2022/01/30 06:25:54;;;;;;;0.87;0.87;;;7.20;63.10;;;;;;20328;6911;309357;-85
2022/01/30 06:28:19;;;;;;;1.23;0.90;;;7.40;63.70;;;;;;20531;6911;118969;-83
2022/01/30 06:30:45;;;;;;;0.73;0.73;;;7.50;63.00;;;;;;20523;6911;121300;-81
2022/01/30 06:33:11;;;;;;;0.90;0.90;;;7.40;63.10;;;;;;20516;6911;115916;-84
2022/01/30 06:35:36;;;;;;;0.70;0.70;;;7.30;63.40;;;;;;20514;6911;118209;-84
2022/01/30 06:38:03;;;;;;;0.93;0.93;;;7.10;63.60;;;;;;20533;6911;118519;-80
2022/01/30 06:40:30;;;;;;;2.63;1.03;;;7.10;63.90;;;;;;20532;6911;117589;-82
2022/01/30 06:42:56;;;;;;;0.77;0.77;;;7.00;64.00;;;;;;20512;6911;120884;-81
2022/01/30 06:45:21;;;;;;;1.77;0.82;;;6.90;64.00;;;;;;20529;6911;117773;-86
2022/01/30 06:47:47;;;;;;;0.88;0.85;;;6.90;64.20;;;;;;20536;6911;117417;-81
2022/01/30 06:50:18;;;;;;;1.83;0.97;;;6.90;64.30;;;;;;20534;6911;118987;-83
2022/01/30 06:52:44;;;;;;;1.73;0.80;;;6.90;64.50;;;;;;20521;6911;117390;-83
2022/01/30 06:55:10;;;;;;;1.50;1.20;;;6.90;64.60;;;;;;20170;6904;307694;-84
2022/01/30 06:57:35;;;;;;;1.63;1.20;;;7.10;65.00;;;;;;20336;6904;309708;-85
2022/01/30 07:00:01;;;;;;;1.83;1.37;;;7.60;64.10;;;;;;20317;6904;309691;-81
2022/01/30 07:02:27;;;;;;;2.10;1.50;;;8.00;62.30;;;;;;20533;6910;119693;-80
2022/01/30 07:04:53;;;;;;;1.27;1.10;;;7.90;62.30;;;;;;20471;6926;118432;-81
2022/01/30 07:07:18;;;;;;;1.50;1.00;;;7.80;62.60;;;;;;20495;6926;117276;-81
2022/01/30 07:09:45;;;;;;;2.50;1.23;;;7.60;63.00;;;;;;20278;6926;302907;-83
2022/01/30 07:12:11;;;;;;;1.67;1.13;;;7.80;63.00;;;;;;20480;6914;117606;-83
2022/01/30 07:14:36;;;;;;;1.87;1.27;;;7.80;63.10;;;;;;20472;6929;118493;-87
2022/01/30 07:17:02;;;;;;;2.70;1.60;;;7.60;62.80;;;;;;20143;6926;311971;-83
2022/01/30 07:19:27;;;;;;;1.98;1.40;;;7.80;62.80;;;;;;20485;6926;118156;-83
2022/01/30 07:21:53;;;;;;;2.13;1.50;;;7.80;62.40;;;;;;20350;6904;312618;-84
2022/01/30 07:24:18;;;;;;;2.28;1.55;;;8.00;62.10;;;;;;20337;6904;291053;-86
2022/01/30 07:26:44;;;;;;;1.70;1.40;;;8.30;61.30;;;;;;20567;6904;117819;-83
2022/01/30 07:29:10;;;;;;;2.17;1.30;;;8.20;60.90;;;;;;20127;6926;347325;-83
2022/01/30 07:31:35;;;;;;;1.90;1.30;;;8.30;61.00;;;;;;20542;6911;117121;-83
2022/01/30 07:34:01;;;;;;;1.93;1.60;;;8.20;60.80;;;;;;20324;6911;311820;-86
2022/01/30 07:36:27;;;;;;;1.60;1.50;;;8.30;60.80;;;;;;20516;6911;117506;-84
2022/01/30 07:38:53;;;;;;;2.85;1.58;;;8.20;60.60;;;;;;20499;6911;120596;-85
2022/01/30 07:41:17;;;;;;;4.28;1.58;;;8.00;61.00;;;;;;20538;6911;118136;-84
2022/01/30 07:43:43;;;;;;;2.03;1.50;;;7.80;61.50;;;;;;20525;6911;117056;-82
2022/01/30 07:46:10;;;;;;;3.60;2.08;;;7.70;62.10;;;;;;20522;6911;117482;-82
2022/01/30 07:48:36;;;;;;;1.87;1.73;;;7.50;62.30;;;;;;20530;6911;118452;-82
2022/01/30 07:51:01;;;;;;;2.15;1.67;;;7.50;62.80;;;;;;20519;6911;121864;-83
2022/01/30 07:53:27;;;;;;;2.95;2.00;;;7.40;62.90;;;;;;20319;6911;345609;-83
2022/01/30 07:55:54;;;;;;;2.80;1.70;;;7.70;62.50;;;;;;20515;6911;117318;-84
2022/01/30 07:58:19;;;;;;;3.22;2.10;;;7.80;61.90;;;;;;20337;6911;346123;-86
2022/01/30 08:00:45;;;;;;;3.53;2.10;;;8.00;61.50;;;;;;20300;6911;338858;-83
2022/01/30 08:03:11;;;;;;;2.30;2.10;;;8.40;60.60;;;;;;20546;6911;117669;-86
2022/01/30 08:05:39;;;;;;;1.63;1.53;;;8.40;60.20;;;;;;20530;6911;118904;-84
2022/01/30 08:08:05;;;;;;;4.07;2.00;;;8.20;60.60;;;;;;20326;6911;316091;-82
2022/01/30 08:10:32;;;;;;;2.00;1.58;;;8.30;60.40;;;;;;20528;6911;117258;-85
2022/01/30 08:13:05;;;;;;;3.00;1.80;;;8.40;60.30;;;;;;20510;6911;117931;-83
2022/01/30 08:15:31;;;;;;;2.13;1.80;;;8.20;60.40;;;;;;20538;6909;117266;-81
2022/01/30 08:17:57;;;;;;;2.90;2.30;;;8.20;60.80;;;;;;20315;6911;280955;-83
2022/01/30 08:20:26;;;;;;;3.87;2.47;;;8.20;60.70;;;;;;20538;6911;117308;-82
2022/01/30 08:22:54;;;;;;;3.40;1.83;;;8.30;60.50;;;;;;20512;6911;119050;-82
2022/01/30 08:25:21;;;;;;;2.53;2.17;;;8.00;60.80;;;;;;20434;6911;119677;-82
2022/01/30 08:27:47;;;;;;;2.27;1.67;;;8.00;60.80;;;;;;20282;6911;117922;-83
2022/01/30 08:30:13;;;;;;;1.53;1.43;;;7.80;61.10;;;;;;20495;6926;119299;-83
2022/01/30 08:32:38;;;;;;;2.73;1.70;;;7.80;61.40;;;;;;20480;6926;117540;-83
2022/01/30 08:35:05;;;;;;;1.67;1.47;;;7.70;61.60;;;;;;20469;6926;117568;-84
2022/01/30 08:37:30;;;;;;;5.40;2.08;;;7.70;61.70;;;;;;20278;6926;311007;-82
2022/01/30 08:39:57;;;;;;;2.35;2.00;;;7.90;61.90;;;;;;20276;6926;310777;-85
2022/01/30 08:42:23;;;;;;;2.25;2.05;;;8.30;61.00;;;;;;20278;6926;281080;-84
2022/01/30 08:44:48;;;;;;;4.20;2.15;;;8.70;59.90;;;;;;20269;6926;335833;-85
2022/01/30 08:47:15;;;;;;;3.93;2.50;;;9.10;57.90;;;;;;20273;6926;281643;-83
2022/01/30 08:49:42;;;;;;;3.75;2.40;;;9.10;57.90;;;;;;20272;6926;280170;-83
2022/01/30 08:52:08;;;;;;;6.37;2.30;;;9.20;57.20;;;;;;20489;6926;117788;-83
2022/01/30 08:54:34;;;;;;;4.67;2.30;;;9.10;57.40;;;;;;20490;6926;117928;-84
2022/01/30 08:56:59;;;;;;;6.97;2.60;;;8.80;58.20;;;;;;20277;6926;310992;-84
2022/01/30 08:59:25;;;;;;;6.97;2.23;;;8.80;58.30;;;;;;20480;6926;117876;-85
2022/01/30 09:01:51;;;;;;;8.57;3.00;;;8.80;58.60;;;;;;20290;6926;339421;-84
2022/01/30 09:04:17;;;;;;;7.40;2.90;;;9.00;58.60;;;;;;20548;6926;119822;-85
2022/01/30 09:06:44;;;;;;;5.97;2.90;;;9.10;58.50;;;;;;20555;6920;116894;-86
2022/01/30 09:09:09;;;;;;;5.90;2.90;;;9.10;58.70;;;;;;20537;6920;117805;-84
2022/01/30 09:11:36;;;;;;;7.00;2.97;;;9.00;58.90;;;;;;20505;6920;118156;-85
2022/01/30 09:14:02;;;;;;;4.70;3.00;;;9.00;58.90;;;;;;20295;6920;309052;-83
2022/01/30 09:16:28;;;;;;;5.60;3.05;;;9.30;57.30;;;;;;20335;6911;311232;-84
2022/01/30 09:18:53;;;;;;;7.53;3.37;;;9.70;55.30;;;;;;20526;6911;118122;-85
2022/01/30 09:21:19;;;;;;;7.63;3.33;;;10.00;53.70;;;;;;20289;6926;282480;-84
2022/01/30 09:23:46;;;;;;;10.07;4.80;;;10.00;53.70;;;;;;20285;6926;283535;-84
2022/01/30 09:26:12;;;;;;;9.57;3.58;;;10.30;52.10;;;;;;20292;6924;319004;-85
2022/01/30 09:28:37;;;;;;;7.83;3.13;;;10.60;51.60;;;;;;20284;6926;280615;-83
2022/01/30 09:31:03;;;;;;;6.93;3.40;;;10.90;50.70;;;;;;20430;6926;120498;-85
2022/01/30 09:33:29;;;;;;;5.82;3.17;;;10.50;51.70;;;;;;20486;6926;118180;-85
2022/01/30 09:35:56;;;;;;;4.03;2.53;;;10.50;51.50;;;;;;20480;6926;118134;-87
2022/01/30 09:38:23;;;;;;;10.03;3.30;;;10.30;51.70;;;;;;20479;6926;118034;-88
2022/01/30 09:40:47;;;;;;;9.63;3.60;;;10.00;51.80;;;;;;20261;6926;310418;-87
2022/01/30 09:43:13;;;;;;;8.40;3.00;;;10.10;50.50;;;;;;20470;6926;118280;-84
2022/01/30 09:45:39;;;;;;;7.00;2.70;;;9.90;51.80;;;;;;20485;6926;118418;-86
2022/01/30 09:48:06;;;;;;;9.57;3.62;;;9.90;51.80;;;;;;20284;6926;310817;-84
2022/01/30 09:50:31;;;;;;;10.47;3.90;;;10.00;49.90;;;;;;20251;6926;281174;-87
2022/01/30 09:52:57;;;;;;;7.27;3.53;;;10.30;49.50;;;;;;20237;6926;281535;-84
2022/01/30 09:55:23;;;;;;;7.47;3.90;;;10.50;47.90;;;;;;20278;6926;306043;-84
2022/01/30 09:57:49;;;;;;;5.13;2.97;;;10.60;47.40;;;;;;20486;6926;116917;-85
2022/01/30 10:00:16;;;;;;;5.43;2.90;;;10.40;48.50;;;;;;20498;6920;117636;-85
2022/01/30 10:02:40;;;;;;;4.67;3.07;;;10.00;48.80;;;;;;20505;6920;117589;-85
2022/01/30 10:05:08;;;;;;;9.83;3.37;;;9.80;50.50;;;;;;20471;6920;117363;-88
2022/01/30 10:07:41;;;;;;;9.43;3.60;;;9.50;50.60;;;;;;20299;6920;302010;-86
2022/01/30 10:10:06;;;;;;;7.20;3.60;;;9.60;49.90;;;;;;20268;6920;311917;-87
2022/01/30 10:12:33;;;;;;;8.63;3.00;;;9.80;49.40;;;;;;20481;6920;118396;-85
2022/01/30 10:15:07;;;;;;;8.13;3.12;;;9.80;49.60;;;;;;20305;6911;282122;-85
2022/01/30 10:17:35;;;;;;;8.37;3.57;;;9.80;49.40;;;;;;20534;6911;117453;-86
2022/01/30 10:20:11;;;;;;;9.33;2.80;;;9.70;49.00;;;;;;20531;6911;117835;-86
2022/01/30 10:22:50;;;;;;;7.77;3.30;;;9.50;49.70;;;;;;20298;6911;341682;-83
2022/01/30 10:25:22;;;;;;;8.00;3.13;;;9.60;48.50;;;;;;20537;6911;118812;-83
2022/01/30 10:27:47;;;;;;;8.07;3.20;;;9.60;49.00;;;;;;20326;6911;280641;-84
2022/01/30 10:30:13;;;;;;;10.00;3.25;;;9.70;47.90;;;;;;20321;6911;279545;-83
2022/01/30 10:32:40;;;;;;;8.57;3.40;;;9.90;46.90;;;;;;20304;6911;280896;-82
2022/01/30 10:35:06;;;;;;;7.73;3.60;;;10.20;45.60;;;;;;20312;6911;280495;-83
2022/01/30 10:37:32;;;;;;;5.35;2.95;;;10.30;45.10;;;;;;20326;6909;314773;-84
2022/01/30 10:40:13;;;;;;;5.80;2.70;;;10.40;44.50;;;;;;20531;6911;121903;-81
2022/01/30 10:42:43;;;;;;;5.62;3.10;;;10.20;45.00;;;;;;20225;6911;309491;-84
2022/01/30 10:45:10;;;;;;;7.80;3.23;;;10.00;44.50;;;;;;20474;6911;123153;-84
2022/01/30 10:47:37;;;;;;;7.13;2.67;;;9.90;45.40;;;;;;20512;6911;118951;-85
2022/01/30 10:50:07;;;;;;;8.35;3.30;;;9.70;46.20;;;;;;20267;6911;310592;-86
2022/01/30 10:52:34;;;;;;;7.00;3.23;;;9.70;45.00;;;;;;20288;6911;309358;-85
2022/01/30 10:55:03;;;;;;;8.17;2.73;;;9.80;44.60;;;;;;20457;6911;119159;-85
2022/01/30 10:57:32;;;;;;;5.97;2.37;;;9.70;44.50;;;;;;20520;6911;118729;-84
2022/01/30 10:59:59;;;;;;;6.13;2.80;;;9.50;45.20;;;;;;20500;6911;117844;-84
2022/01/30 11:02:28;;;;;;;6.33;2.60;;;9.10;46.10;;;;;;20538;6911;121268;-85
2022/01/30 11:05:05;;;;;;;4.90;2.50;;;9.10;46.00;;;;;;20513;6911;118107;-84
2022/01/30 11:07:30;;;;;;;6.70;2.70;;;9.00;46.50;;;;;;20306;6911;284583;-88
2022/01/30 11:09:54;;;;;;;5.93;2.20;;;9.20;44.90;;;;;;20292;6911;343971;-84
2022/01/30 11:12:32;;;;;;;5.30;2.28;;;9.70;46.00;;;;;;20497;6911;117944;-87
2022/01/30 11:14:54;;;;;;;5.87;2.27;;;9.60;45.90;;;;;;20456;6911;121944;-85
2022/01/30 11:17:17;;;;;;;5.18;2.90;;;9.80;44.80;;;;;;20297;6911;314358;-83
2022/01/30 11:19:42;;;;;;;6.17;2.30;;;9.80;44.80;;;;;;20523;6911;117190;-86
2022/01/30 11:22:08;;;;;;;4.87;2.65;;;9.90;45.30;;;;;;20533;6911;118529;-85
2022/01/30 11:24:34;;;;;;;6.12;2.15;;;9.90;45.80;;;;;;20529;6911;117749;-87
2022/01/30 11:27:00;;;;;;;4.70;2.35;;;9.90;46.00;;;;;;20471;6911;120530;-84
2022/01/30 11:29:25;;;;;;;4.93;2.28;;;9.80;46.20;;;;;;20515;6911;118082;-84
2022/01/30 11:31:50;;;;;;;7.90;2.93;;;9.80;46.40;;;;;;20309;6911;286892;-85
2022/01/30 11:34:17;;;;;;;5.70;2.37;;;10.00;43.50;;;;;;20524;6911;117982;-89
2022/01/30 11:36:43;;;;;;;8.37;2.87;;;10.10;43.90;;;;;;20320;6911;309773;-83
2022/01/30 11:39:08;;;;;;;5.53;2.45;;;10.20;42.20;;;;;;20524;6911;118139;-84
2022/01/30 11:41:34;;;;;;;6.57;2.70;;;10.10;43.40;;;;;;20532;6911;119089;-85
2022/01/30 11:44:20;;;;;;;6.90;3.03;;;10.10;43.40;;;;;;20344;6911;283954;-83
2022/01/30 11:46:53;;;;;;;6.73;2.40;;;10.30;43.00;;;;;;20493;6911;122221;-83
2022/01/30 11:49:14;;;;;;;4.07;2.60;;;10.30;43.30;;;;;;20515;6910;117661;-83
2022/01/30 11:51:53;;;;;;;8.97;2.80;;;10.20;43.80;;;;;;20516;6910;118702;-83
2022/01/30 11:54:38;;;;;;;7.07;3.00;;;10.00;44.10;;;;;;20044;6911;315421;-83
2022/01/30 11:57:18;;;;;;;8.40;2.97;;;10.20;41.90;;;;;;20234;6911;310709;-82
2022/01/30 11:59:43;;;;;;;8.33;3.27;;;10.50;42.00;;;;;;20049;6911;300456;-84
2022/01/30 12:02:25;;;;;;;7.45;2.90;;;10.80;40.80;;;;;;20309;6911;293277;-83
2022/01/30 12:04:55;;;;;;;6.17;2.83;;;10.90;40.80;;;;;;20511;6911;118510;-84
2022/01/30 12:07:40;;;;;;;5.67;2.60;;;10.80;41.40;;;;;;20500;6911;118262;-85
2022/01/30 12:10:15;;;;;;;7.85;2.95;;;10.40;41.80;;;;;;20296;6911;281147;-86
2022/01/30 12:12:50;;;;;;;7.45;2.75;;;10.40;41.50;;;;;;20222;6911;325926;-85
2022/01/30 12:15:39;;;;;;;7.77;2.93;;;10.70;41.20;;;;;;20531;6911;118469;-84
2022/01/30 12:18:04;;;;;;;5.87;3.15;;;10.60;41.60;;;;;;20320;6911;344864;-85
2022/01/30 12:20:30;;;;;;;5.47;2.70;;;10.60;40.80;;;;;;20532;6911;116760;-85
2022/01/30 12:22:55;;;;;;;7.82;2.67;;;10.50;41.30;;;;;;20138;6911;120139;-84
2022/01/30 12:25:28;;;;;;;7.03;2.80;;;10.10;41.80;;;;;;20535;6911;118945;-85
2022/01/30 12:27:54;;;;;;;7.03;2.80;;;9.90;43.50;;;;;;20505;6911;121766;-84
2022/01/30 12:30:30;;;;;;;7.35;3.20;;;9.70;44.10;;;;;;20287;6911;340362;-85
2022/01/30 12:32:56;;;;;;;5.23;2.87;;;9.70;43.30;;;;;;20468;6911;146922;-89
2022/01/30 12:35:21;;;;;;;6.57;2.97;;;9.70;43.30;;;;;;20305;6911;310610;-86
2022/01/30 12:37:47;;;;;;;8.93;3.27;;;9.80;43.10;;;;;;20509;6911;117920;-85
2022/01/30 12:40:16;;;;;;;4.65;2.50;;;9.80;43.60;;;;;;20528;6911;119674;-88
2022/01/30 12:42:42;;;;;;;7.65;3.17;;;9.70;44.10;;;;;;20319;6911;339600;-84
2022/01/30 12:45:11;;;;;;;6.47;2.90;;;9.90;43.00;;;;;;20358;6911;279499;-85
2022/01/30 12:47:55;;;;;;;6.03;2.92;;;10.20;41.60;;;;;;20369;6911;309696;-85
2022/01/30 12:50:19;;;;;;;4.57;2.47;;;10.50;40.40;;;;;;20577;6911;116723;-86
2022/01/30 12:52:51;;;;;;;3.13;2.23;;;10.30;41.00;;;;;;20577;6911;116858;-86
2022/01/30 12:55:15;;;;;;;6.28;2.90;;;10.10;41.60;;;;;;20171;6911;314070;-84
2022/01/30 12:57:39;;;;;;;6.15;2.97;;;10.20;40.80;;;;;;20319;6911;344284;-84
2022/01/30 13:00:05;;;;;;;8.70;2.97;;;10.50;39.60;;;;;;20533;6910;117791;-84
2022/01/30 13:02:42;;;;;;;6.15;2.95;;;10.60;40.80;;;;;;20299;6910;292453;-87
2022/01/30 13:05:01;;;;;;;7.37;3.10;;;10.60;40.10;;;;;;20223;6911;315397;-86
2022/01/30 13:07:27;;;;;;;6.70;2.83;;;10.90;39.00;;;;;;20312;6911;309701;-84
2022/01/30 13:10:05;;;;;;;6.78;3.08;;;11.20;38.50;;;;;;20356;6911;293730;-85
2022/01/30 13:12:31;;;;;;;3.87;2.57;;;11.30;38.30;;;;;;20521;6911;118367;-84
2022/01/30 13:14:56;;;;;;;6.57;3.10;;;11.10;39.00;;;;;;20554;6911;146181;-84
2022/01/30 13:17:29;;;;;;;5.90;3.03;;;10.80;39.80;;;;;;20357;6911;314278;-84
2022/01/30 13:19:54;;;;;;;6.03;3.00;;;10.80;38.90;;;;;;20542;6911;117520;-84
2022/01/30 13:22:33;;;;;;;6.75;2.70;;;10.70;39.60;;;;;;20546;6911;118245;-84
2022/01/30 13:24:55;;;;;;;7.77;2.97;;;10.50;40.20;;;;;;20298;6911;310648;-84
2022/01/30 13:27:22;;;;;;;5.18;2.35;;;10.60;40.70;;;;;;20522;6911;117748;-84